Time;durP1;ratioP1;P1;durP2;ratioP2;P2;SDS_P1;SDS_P2;PMS_P1;PMS_P2;Temp;Humidity;BMP_temperature;BMP_pressure;BME280_temperature;BME280_humidity;BME280_pressure;Samples;Min_cycle;Max_cycle;Signal;HPM_P1;HPM_P2
2023/01/08 00:00:50;;;;;;;4.40;2.58;;;;;;;10.95;100.00;100068.31;4995618;28;20034;-80
2023/01/08 00:03:15;;;;;;;5.45;2.47;;;;;;;10.96;100.00;100067.34;4979332;28;20417;-79
2023/01/08 00:05:41;;;;;;;11.48;3.28;;;;;;;10.85;100.00;100051.88;4978501;28;20042;-80
2023/01/08 00:08:07;;;;;;;4.55;2.58;;;;;;;10.87;100.00;100068.19;4996004;28;20535;-79
2023/01/08 00:10:37;;;;;;;5.70;2.45;;;;;;;10.68;100.00;100064.41;4996765;28;20030;-80
2023/01/08 00:13:03;;;;;;;7.72;2.47;;;;;;;10.77;100.00;100055.38;4974126;28;20089;-79
2023/01/08 00:15:29;;;;;;;3.20;2.38;;;;;;;10.85;100.00;100061.00;4967070;28;20039;-80
2023/01/08 00:17:57;;;;;;;6.72;2.40;;;;;;;10.84;100.00;100055.66;4976608;28;20563;-80
2023/01/08 00:20:23;;;;;;;9.98;2.35;;;;;;;10.84;100.00;100061.13;4975533;28;20037;-80
2023/01/08 00:22:50;;;;;;;6.43;2.65;;;;;;;10.79;100.00;100055.19;5009189;28;20451;-79
2023/01/08 00:25:16;;;;;;;7.07;2.55;;;;;;;10.84;100.00;100059.25;4977770;28;20073;-80
2023/01/08 00:27:41;;;;;;;5.72;2.35;;;;;;;10.83;100.00;100052.03;4975347;28;20425;-80
2023/01/08 00:30:08;;;;;;;11.30;2.97;;;;;;;10.84;100.00;100051.03;4989159;28;20525;-80
2023/01/08 00:32:33;;;;;;;8.30;2.67;;;;;;;10.85;100.00;100055.50;4976047;28;20045;-80
2023/01/08 00:35:00;;;;;;;4.72;2.40;;;;;;;10.90;100.00;100046.84;4987654;28;20404;-80
2023/01/08 00:37:27;;;;;;;5.60;2.20;;;;;;;10.92;100.00;100047.59;4977951;28;20042;-80
2023/01/08 00:39:52;;;;;;;5.07;2.85;;;;;;;10.97;100.00;100036.16;4993838;28;20039;-80
2023/01/08 00:42:18;;;;;;;4.47;2.25;;;;;;;10.88;100.00;100035.16;4977211;28;20378;-80
2023/01/08 00:44:43;;;;;;;4.03;2.45;;;;;;;10.94;100.00;100036.50;4993058;28;20046;-79
2023/01/08 00:47:09;;;;;;;4.78;2.08;;;;;;;10.79;100.00;100030.53;4992892;28;20030;-80
2023/01/08 00:49:34;;;;;;;8.55;2.40;;;;;;;11.01;100.00;100033.00;4993787;28;20050;-80
2023/01/08 00:52:00;;;;;;;5.60;2.85;;;;;;;10.90;100.00;100022.19;4977337;28;20080;-81
2023/01/08 00:54:25;;;;;;;5.35;2.63;;;;;;;10.88;100.00;100016.00;4976692;28;20038;-80
2023/01/08 00:56:50;;;;;;;6.25;2.70;;;;;;;10.99;100.00;100023.22;4991280;28;20034;-80
2023/01/08 00:59:16;;;;;;;7.05;2.83;;;;;;;10.92;100.00;100028.41;4977054;28;20057;-81
2023/01/08 01:01:42;;;;;;;6.47;2.30;;;;;;;10.83;100.00;100021.06;4979171;28;20393;-81
2023/01/08 01:04:07;;;;;;;8.85;2.60;;;;;;;10.83;100.00;100026.53;5010044;28;20150;-79
2023/01/08 01:06:32;;;;;;;6.15;2.50;;;;;;;10.80;100.00;100019.44;4976585;28;20147;-80
2023/01/08 01:08:58;;;;;;;8.40;2.55;;;;;;;10.77;100.00;100017.03;4993909;28;20053;-79
2023/01/08 01:11:26;;;;;;;11.55;2.55;;;;;;;10.89;100.00;100022.34;4976597;28;20045;-79
2023/01/08 01:13:53;;;;;;;6.55;2.50;;;;;;;10.81;100.00;100025.81;4991048;28;20034;-79
2023/01/08 01:16:19;;;;;;;7.60;2.67;;;;;;;10.77;100.00;100024.34;4975847;28;20035;-80
2023/01/08 01:18:44;;;;;;;5.13;2.78;;;;;;;10.88;100.00;100032.44;4992792;28;20400;-80
2023/01/08 01:21:30;;;;;;;15.05;3.67;;;;;;;10.79;100.00;100019.59;4976138;28;20034;-80
2023/01/08 01:23:59;;;;;;;6.70;3.08;;;;;;;10.82;100.00;100017.47;4993259;28;20042;-80
2023/01/08 01:26:25;;;;;;;7.20;2.65;;;;;;;10.92;100.00;100025.69;4991896;28;20039;-80
2023/01/08 01:28:53;;;;;;;7.15;2.65;;;;;;;10.79;100.00;100014.13;4995729;28;20031;-79
2023/01/08 01:31:20;;;;;;;7.35;2.38;;;;;;;10.87;100.00;100007.94;4994834;28;20061;-81
2023/01/08 01:33:45;;;;;;;9.00;2.80;;;;;;;10.91;100.00;100003.91;4978387;28;20027;-79
2023/01/08 01:36:12;;;;;;;5.85;2.60;;;;;;;10.89;100.00;100000.44;4990116;28;20042;-79
2023/01/08 01:38:42;;;;;;;5.25;2.85;;;;;;;10.77;100.00;99997.88;4972545;28;20058;-80
2023/01/08 01:41:17;;;;;;;6.30;2.70;;;;;;;10.79;100.00;99994.94;4993341;28;20369;-79
2023/01/08 01:43:42;;;;;;;9.40;2.58;;;;;;;10.76;100.00;99993.38;4984174;28;20330;-80
2023/01/08 01:46:22;;;;;;;9.77;3.00;;;;;;;10.84;100.00;99988.03;4965603;28;20037;-80
2023/01/08 01:48:52;;;;;;;4.13;2.72;;;;;;;10.84;100.00;99985.31;4978842;28;20481;-80
2023/01/08 01:51:18;;;;;;;6.13;2.53;;;;;;;10.87;100.00;99997.88;4977104;28;20054;-80
2023/01/08 01:53:44;;;;;;;8.32;3.13;;;;;;;11.00;100.00;99998.44;4993911;28;20038;-81
2023/01/08 01:56:10;;;;;;;7.80;2.80;;;;;;;11.05;100.00;99997.97;4993039;28;20039;-79
2023/01/08 01:58:36;;;;;;;10.82;3.10;;;;;;;10.90;100.00;99991.22;4991424;28;20400;-81
2023/01/08 02:01:04;;;;;;;3.88;2.53;;;;;;;10.80;100.00;99993.94;4983985;28;20464;-80
2023/01/08 02:03:33;;;;;;;10.05;2.90;;;;;;;10.91;100.00;99992.94;4994106;28;20133;-80
2023/01/08 02:06:01;;;;;;;5.80;2.63;;;;;;;10.91;100.00;99988.31;4991844;28;20105;-80
2023/01/08 02:08:41;;;;;;;8.57;3.17;;;;;;;10.84;100.00;99982.56;5012594;28;20042;-80
2023/01/08 02:11:15;;;;;;;8.18;2.75;;;;;;;10.90;100.00;99985.72;4996794;28;20034;-81
2023/01/08 02:13:50;;;;;;;9.82;3.00;;;;;;;10.99;100.00;99980.25;4978857;28;20386;-80
2023/01/08 02:16:31;;;;;;;6.28;2.95;;;;;;;10.99;100.00;99976.66;4986811;28;20085;-80
2023/01/08 02:19:06;;;;;;;10.98;3.05;;;;;;;10.94;100.00;99968.88;4996541;28;20503;-80
2023/01/08 02:21:46;;;;;;;12.10;3.30;;;;;;;11.07;100.00;99964.94;4996355;28;20031;-80
2023/01/08 02:24:22;;;;;;;5.68;2.38;;;;;;;11.01;100.00;99980.09;5011620;28;20038;-79
2023/01/08 02:26:52;;;;;;;5.65;2.75;;;;;;;10.93;100.00;100012.84;5010953;28;20054;-79
2023/01/08 02:29:23;;;;;;;5.88;0.98;;;;;;;10.29;100.00;100012.31;4995760;28;20053;-80
2023/01/08 02:31:48;;;;;;;3.00;0.80;;;;;;;10.07;100.00;100016.16;4996465;28;20034;-79
2023/01/08 02:34:14;;;;;;;4.03;1.02;;;;;;;9.77;100.00;100012.41;4978978;28;20069;-80
2023/01/08 02:36:49;;;;;;;4.60;0.95;;;;;;;9.62;100.00;100011.06;4983249;28;20116;-79
2023/01/08 02:39:51;;;;;;;3.53;0.40;;;;;;;9.37;100.00;100007.78;4996233;28;20042;-79
2023/01/08 02:42:34;;;;;;;2.65;0.73;;;;;;;9.32;100.00;100001.84;4996107;28;20124;-79
2023/01/08 02:45:10;;;;;;;3.88;0.60;;;;;;;9.17;100.00;99993.13;4976835;28;20055;-79
2023/01/08 02:47:45;;;;;;;2.30;0.60;;;;;;;9.08;100.00;99996.66;4963778;28;20034;-79
2023/01/08 02:50:31;;;;;;;10.02;0.57;;;;;;;8.92;100.00;99998.00;4982859;28;20030;-78
2023/01/08 02:53:19;;;;;;;2.10;0.63;;;;;;;8.97;100.00;99979.34;4993744;28;20026;-79
2023/01/08 02:55:58;;;;;;;3.40;0.65;;;;;;;8.97;100.00;99978.50;5010737;28;20496;-78
2023/01/08 02:58:26;;;;;;;0.73;0.50;;;;;;;9.02;100.00;99977.09;5012598;28;20074;-79
2023/01/08 03:00:53;;;;;;;3.75;0.63;;;;;;;8.96;100.00;99984.94;5010926;28;20034;-79
2023/01/08 03:03:23;;;;;;;4.28;0.90;;;;;;;8.94;100.00;99976.03;4996327;28;20117;-79
2023/01/08 03:05:52;;;;;;;3.33;0.65;;;;;;;8.90;100.00;99978.13;4995420;28;20493;-79
2023/01/08 03:08:19;;;;;;;2.22;0.70;;;;;;;8.98;100.00;99974.75;4995430;28;20034;-79
2023/01/08 03:10:50;;;;;;;2.63;0.90;;;;;;;8.92;100.00;100000.72;4991775;28;20504;-79
2023/01/08 03:13:23;;;;;;;3.58;0.77;;;;;;;9.14;100.00;99986.06;4993244;28;20034;-79
2023/01/08 03:15:57;;;;;;;5.32;0.60;;;;;;;8.86;100.00;99979.41;5009192;28;20030;-79
2023/01/08 03:18:35;;;;;;;4.03;0.90;;;;;;;8.75;100.00;99976.75;4996013;28;20038;-79
2023/01/08 03:21:04;;;;;;;4.80;0.65;;;;;;;8.83;100.00;99966.88;4979491;28;20189;-78
2023/01/08 03:23:33;;;;;;;7.57;1.17;;;;;;;8.78;100.00;99965.56;4980814;28;20030;-79
2023/01/08 03:26:00;;;;;;;5.15;0.65;;;;;;;8.84;100.00;99973.22;5012436;28;20469;-79
2023/01/08 03:28:29;;;;;;;5.72;0.75;;;;;;;8.84;100.00;99970.50;4993983;28;20039;-78
2023/01/08 03:30:56;;;;;;;2.28;0.60;;;;;;;8.83;100.00;99963.28;4978188;28;20035;-79
2023/01/08 03:33:23;;;;;;;7.40;1.15;;;;;;;8.87;100.00;99970.25;5010989;28;20034;-79
2023/01/08 03:35:51;;;;;;;1.80;0.60;;;;;;;8.99;100.00;99952.78;4993740;28;20050;-79
2023/01/08 03:38:22;;;;;;;4.80;0.75;;;;;;;8.89;100.00;99972.84;4994193;28;20069;-79
2023/01/08 03:40:54;;;;;;;5.28;0.75;;;;;;;8.86;100.00;99954.84;5011376;28;20045;-79
2023/01/08 03:43:20;;;;;;;7.73;0.70;;;;;;;8.92;100.00;99954.31;5009990;28;20084;-79
2023/01/08 03:45:52;;;;;;;8.68;0.82;;;;;;;9.00;100.00;99956.34;4994731;28;20808;-79
2023/01/08 03:48:20;;;;;;;3.27;0.50;;;;;;;8.84;100.00;99954.13;4994170;28;20030;-79
2023/01/08 03:50:45;;;;;;;6.28;0.57;;;;;;;8.80;100.00;99942.56;4980226;28;20048;-79
2023/01/08 03:53:11;;;;;;;4.38;0.52;;;;;;;8.69;100.00;99917.22;4995745;28;20042;-78
2023/01/08 03:55:36;;;;;;;6.90;1.00;;;;;;;8.76;100.00;99923.91;4995062;28;20121;-78
2023/01/08 03:58:02;;;;;;;3.00;0.50;;;;;;;8.74;100.00;99939.50;4979573;28;20090;-78
2023/01/08 04:00:27;;;;;;;1.77;0.60;;;;;;;8.81;100.00;99940.72;4979259;28;20390;-79
2023/01/08 04:02:53;;;;;;;1.50;0.40;;;;;;;8.75;100.00;99941.25;4994423;28;20377;-79
2023/01/08 04:05:18;;;;;;;2.80;0.60;;;;;;;8.83;100.00;99941.47;4982715;28;20504;-79
2023/01/08 04:07:44;;;;;;;5.45;0.63;;;;;;;8.78;100.00;99930.09;4978784;28;20042;-79
2023/01/08 04:10:09;;;;;;;1.67;0.50;;;;;;;8.87;100.00;99936.59;4973396;28;20034;-79
2023/01/08 04:12:34;;;;;;;8.23;0.68;;;;;;;8.86;100.00;99938.47;4994745;28;20092;-79
2023/01/08 04:15:00;;;;;;;7.82;0.77;;;;;;;8.80;100.00;99931.66;4977784;28;20125;-80
2023/01/08 04:17:26;;;;;;;4.53;0.52;;;;;;;8.78;100.00;99921.88;4979059;28;20488;-80
2023/01/08 04:19:51;;;;;;;5.65;0.60;;;;;;;8.92;100.00;99915.22;4995778;28;20057;-80
2023/01/08 04:22:16;;;;;;;5.20;0.57;;;;;;;8.92;100.00;99913.38;4994211;28;20462;-79
2023/01/08 04:24:42;;;;;;;7.07;0.70;;;;;;;8.86;100.00;99904.84;4977855;28;20034;-80
2023/01/08 04:27:07;;;;;;;4.07;0.70;;;;;;;8.85;100.00;99900.38;4978178;28;20056;-79
2023/01/08 04:29:33;;;;;;;3.17;0.60;;;;;;;8.87;100.00;99910.19;4993899;28;20039;-79
2023/01/08 04:31:59;;;;;;;7.05;0.90;;;;;;;8.91;100.00;99908.03;4977328;28;20130;-79
2023/01/08 04:34:24;;;;;;;3.70;0.70;;;;;;;8.87;100.00;99912.03;4994775;28;20038;-79
2023/01/08 04:36:49;;;;;;;4.53;0.85;;;;;;;8.88;100.00;99897.38;4989275;28;20045;-79
2023/01/08 04:39:15;;;;;;;8.02;1.33;;;;;;;8.86;100.00;99902.13;4988905;28;20401;-79
2023/01/08 04:41:40;;;;;;;4.38;0.70;;;;;;;8.92;100.00;99910.63;4977690;28;20412;-79
2023/01/08 04:44:06;;;;;;;8.18;1.00;;;;;;;8.98;100.00;99901.03;4994437;28;20038;-80
2023/01/08 04:46:31;;;;;;;7.55;1.13;;;;;;;9.02;100.00;99900.63;4977924;28;20030;-79
2023/01/08 04:48:57;;;;;;;9.10;1.10;;;;;;;9.04;100.00;99903.22;4978761;28;20109;-80
2023/01/08 04:51:22;;;;;;;7.65;1.27;;;;;;;9.20;100.00;99921.88;4993094;28;20042;-79
2023/01/08 04:53:48;;;;;;;7.18;1.10;;;;;;;9.04;100.00;99910.56;4974779;28;20026;-80
2023/01/08 04:56:13;;;;;;;9.90;1.38;;;;;;;9.12;100.00;99880.72;4976913;28;20034;-79
2023/01/08 04:58:39;;;;;;;6.47;1.95;;;;;;;9.11;100.00;99865.31;4994829;28;20125;-79
2023/01/08 05:01:15;;;;;;;4.65;1.88;;;;;;;9.02;100.00;99877.94;4974893;28;20043;-79
2023/01/08 05:03:40;;;;;;;5.45;2.03;;;;;;;9.10;100.00;99888.16;4994537;28;20038;-79
2023/01/08 05:06:06;;;;;;;6.20;1.88;;;;;;;9.02;100.00;99892.44;4994449;28;20033;-80
2023/01/08 05:08:32;;;;;;;5.85;2.55;;;;;;;9.18;100.00;99891.06;4991619;28;20378;-79
2023/01/08 05:10:58;;;;;;;8.38;2.95;;;;;;;9.12;100.00;99878.84;4993253;28;20029;-79
2023/01/08 05:13:23;;;;;;;7.20;2.45;;;;;;;9.24;100.00;99887.78;4994089;28;20140;-79
2023/01/08 05:15:49;;;;;;;7.90;3.38;;;;;;;9.19;100.00;99887.34;4989797;28;20506;-79
2023/01/08 05:18:14;;;;;;;5.97;2.72;;;;;;;9.22;100.00;99872.56;4945772;28;20041;-79
2023/01/08 05:20:40;;;;;;;13.30;2.38;;;;;;;9.16;100.00;99884.88;4995462;28;20041;-79
2023/01/08 05:23:05;;;;;;;4.63;2.00;;;;;;;9.15;100.00;99880.41;4957940;28;20516;-79
2023/01/08 05:25:31;;;;;;;6.32;1.90;;;;;;;9.30;100.00;99891.88;4987504;28;20031;-79
2023/01/08 05:27:57;;;;;;;3.75;1.88;;;;;;;9.38;100.00;99883.84;4993038;28;20050;-80
2023/01/08 05:30:22;;;;;;;6.85;1.88;;;;;;;9.30;100.00;99891.88;4993792;28;20034;-80
2023/01/08 05:32:48;;;;;;;5.55;1.70;;;;;;;9.34;100.00;99882.38;4974126;28;20046;-79
2023/01/08 05:35:13;;;;;;;4.20;1.30;;;;;;;9.42;100.00;99888.00;4969757;28;20031;-80
2023/01/08 05:37:39;;;;;;;7.22;1.60;;;;;;;9.27;100.00;99886.66;4978294;28;20050;-79
2023/01/08 05:40:05;;;;;;;3.55;1.30;;;;;;;9.33;100.00;99899.75;4974013;28;20038;-78
2023/01/08 05:42:32;;;;;;;5.63;1.33;;;;;;;9.33;100.00;99897.91;4990934;28;20116;-80
2023/01/08 05:44:58;;;;;;;6.60;1.40;;;;;;;9.38;100.00;99900.25;4995426;28;20049;-80
2023/01/08 05:47:23;;;;;;;2.67;1.15;;;;;;;9.36;100.00;99885.81;4994709;28;20117;-79
2023/01/08 05:49:49;;;;;;;4.03;1.20;;;;;;;9.37;100.00;99887.56;4998524;28;20042;-79
2023/01/08 05:52:14;;;;;;;5.28;1.15;;;;;;;9.33;100.00;99872.44;4997538;28;20054;-79
2023/01/08 05:54:39;;;;;;;7.03;1.30;;;;;;;9.28;100.00;99869.25;4978577;28;20041;-79
2023/01/08 05:57:05;;;;;;;2.95;1.08;;;;;;;9.23;100.00;99860.63;4994455;28;20954;-79
2023/01/08 05:59:30;;;;;;;2.95;1.02;;;;;;;9.19;100.00;99852.69;4978736;28;20508;-79
2023/01/08 06:01:56;;;;;;;9.13;1.23;;;;;;;9.16;100.00;99857.56;4981160;28;20038;-80
2023/01/08 06:04:21;;;;;;;1.80;0.82;;;;;;;9.12;100.00;99851.53;4980842;28;20050;-79
2023/01/08 06:06:46;;;;;;;7.88;0.90;;;;;;;9.11;100.00;99857.13;4992340;28;20027;-79
2023/01/08 06:09:12;;;;;;;8.70;1.05;;;;;;;8.99;100.00;99868.13;4989455;28;20042;-79
2023/01/08 06:11:37;;;;;;;4.97;0.80;;;;;;;9.05;100.00;99876.78;4984039;28;20092;-78
2023/01/08 06:14:03;;;;;;;8.63;0.88;;;;;;;8.95;100.00;99865.81;4996393;28;20069;-79
2023/01/08 06:16:28;;;;;;;9.48;1.02;;;;;;;8.93;100.00;99887.78;4995398;28;20511;-79
2023/01/08 06:18:53;;;;;;;5.25;0.93;;;;;;;8.93;100.00;99895.13;4977160;28;20039;-79
2023/01/08 06:21:19;;;;;;;6.70;1.00;;;;;;;8.96;100.00;99890.25;4979220;28;20038;-79
2023/01/08 06:23:44;;;;;;;4.90;0.75;;;;;;;8.87;100.00;99906.56;4997123;28;20046;-79
2023/01/08 06:26:11;;;;;;;9.13;0.60;;;;;;;8.80;100.00;99906.25;4979928;28;20041;-79
2023/01/08 06:28:36;;;;;;;4.82;0.68;;;;;;;8.73;100.00;99905.06;5010731;28;20587;-78
2023/01/08 06:31:02;;;;;;;2.10;0.50;;;;;;;8.63;100.00;99899.53;4980753;28;20026;-78
2023/01/08 06:33:29;;;;;;;7.38;0.80;;;;;;;8.68;100.00;99912.78;4980150;28;20084;-79
2023/01/08 06:35:59;;;;;;;7.03;0.90;;;;;;;8.60;100.00;99906.09;4992258;28;20054;-79
2023/01/08 06:38:24;;;;;;;10.70;0.90;;;;;;;8.57;100.00;99910.97;4995038;28;20049;-79
2023/01/08 06:40:51;;;;;;;4.82;0.60;;;;;;;8.40;100.00;99917.84;4979128;28;20034;-80
2023/01/08 06:43:16;;;;;;;3.78;0.80;;;;;;;8.32;100.00;99912.19;4976170;28;20397;-80
2023/01/08 06:45:42;;;;;;;6.45;0.68;;;;;;;8.35;100.00;99920.97;4974245;28;20034;-80
2023/01/08 06:48:07;;;;;;;1.58;0.57;;;;;;;8.30;100.00;99925.94;4976560;28;20035;-79
2023/01/08 06:50:33;;;;;;;1.05;0.57;;;;;;;8.31;100.00;99930.38;4974902;28;20033;-79
2023/01/08 06:52:59;;;;;;;11.30;1.23;;;;;;;8.18;100.00;99924.25;4996458;28;20117;-80
2023/01/08 06:55:25;;;;;;;2.75;0.80;;;;;;;8.12;100.00;99922.91;4991323;28;20218;-80
2023/01/08 06:57:54;;;;;;;8.32;0.60;;;;;;;8.08;100.00;99937.78;4995008;28;20086;-79
2023/01/08 07:00:22;;;;;;;8.90;0.65;;;;;;;8.03;100.00;99940.03;5010543;28;20049;-80
2023/01/08 07:02:48;;;;;;;10.13;0.63;;;;;;;7.95;100.00;99928.91;4994870;28;20030;-80
2023/01/08 07:05:14;;;;;;;5.10;0.65;;;;;;;7.88;100.00;99926.66;4995061;28;20050;-78
2023/01/08 07:07:39;;;;;;;8.38;1.10;;;;;;;7.83;100.00;99933.50;4992208;28;20081;-78
2023/01/08 07:10:04;;;;;;;6.18;1.20;;;;;;;7.79;100.00;99937.47;4970900;28;20039;-77
2023/01/08 07:12:30;;;;;;;9.02;1.10;;;;;;;7.80;100.00;99936.50;4992376;28;20432;-77
2023/01/08 07:14:55;;;;;;;10.63;1.30;;;;;;;7.71;100.00;99946.28;4986318;28;20564;-78
2023/01/08 07:17:21;;;;;;;5.60;0.73;;;;;;;7.68;100.00;99933.78;4975407;28;20401;-77
2023/01/08 07:19:46;;;;;;;4.50;1.02;;;;;;;7.72;100.00;99945.28;4997647;28;20049;-78
2023/01/08 07:22:12;;;;;;;4.30;0.77;;;;;;;7.49;100.00;99934.44;4996414;28;20047;-78
2023/01/08 07:24:37;;;;;;;3.33;0.60;;;;;;;7.50;100.00;99929.84;4980865;28;20045;-78
2023/01/08 07:27:02;;;;;;;7.65;0.50;;;;;;;7.35;100.00;99921.91;4996472;28;20038;-78
2023/01/08 07:29:28;;;;;;;6.72;1.00;;;;;;;7.52;100.00;99927.84;4994615;28;20320;-78
2023/01/08 07:31:53;;;;;;;7.13;0.90;;;;;;;7.44;100.00;99933.91;4974602;28;20221;-78
2023/01/08 07:36:57;;;;;;;5.13;0.55;;;;;;;7.55;100.00;99928.47;5026765;23;20113;-77
2023/01/08 07:39:22;;;;;;;3.78;0.50;;;;;;;7.46;100.00;99931.94;4926050;28;20047;-77
2023/01/08 07:41:47;;;;;;;8.55;0.85;;;;;;;7.48;100.00;99926.38;4922431;28;20401;-78
2023/01/08 07:44:13;;;;;;;3.75;0.55;;;;;;;7.50;100.00;99927.13;4932882;28;20588;-77
2023/01/08 07:46:39;;;;;;;6.30;0.65;;;;;;;7.41;100.00;99916.97;4950293;28;20118;-77
2023/01/08 07:49:05;;;;;;;3.53;0.65;;;;;;;7.38;100.00;99914.47;4947942;29;20066;-78
2023/01/08 07:51:30;;;;;;;6.55;0.80;;;;;;;7.28;100.00;99903.47;4957723;28;20546;-78
2023/01/08 07:53:56;;;;;;;8.90;0.60;;;;;;;7.39;100.00;99918.94;4958188;28;20058;-79
2023/01/08 07:56:22;;;;;;;7.05;1.00;;;;;;;7.45;100.00;99921.19;5107550;23;20063;-78
2023/01/08 07:58:48;;;;;;;7.88;0.90;;;;;;;7.25;100.00;99909.19;4950062;28;20135;-79
2023/01/08 08:01:14;;;;;;;7.28;0.93;;;;;;;7.23;100.00;99917.47;4948697;29;20127;-77
2023/01/08 08:03:40;;;;;;;5.57;0.75;;;;;;;7.29;100.00;99922.41;4933142;29;20043;-77
2023/01/08 08:08:40;;;;;;;7.38;0.82;;;;;;;7.24;100.00;99910.16;5025598;23;20055;-78
2023/01/08 08:11:06;;;;;;;7.55;0.98;;;;;;;7.23;100.00;99919.31;4935017;28;20403;-79
2023/01/08 08:13:32;;;;;;;9.63;0.77;;;;;;;7.34;100.00;99909.28;4924226;28;20481;-78
2023/01/08 08:16:04;;;;;;;10.68;0.90;;;;;;;7.39;100.00;99908.91;4924435;29;20059;-78
2023/01/08 08:18:30;;;;;;;5.80;0.70;;;;;;;7.43;100.00;99910.41;4972076;28;20054;-77
2023/01/08 08:20:56;;;;;;;8.80;0.80;;;;;;;7.45;100.00;99908.41;4948345;28;20110;-77
2023/01/08 08:23:22;;;;;;;14.40;1.10;;;;;;;7.47;100.00;99905.56;4947701;29;20047;-77
2023/01/08 08:25:48;;;;;;;10.00;0.90;;;;;;;7.48;100.00;99902.72;4961914;28;20016;-77
2023/01/08 08:28:13;;;;;;;7.28;0.80;;;;;;;7.51;100.00;99902.47;4971146;28;20442;-77
2023/01/08 08:30:39;;;;;;;13.35;0.80;;;;;;;7.49;100.00;99903.59;4956428;29;20086;-77
2023/01/08 08:33:05;;;;;;;10.73;1.40;;;;;;;7.60;100.00;99895.41;4922101;29;20044;-78
2023/01/08 08:35:33;;;;;;;11.05;1.45;;;;;;;7.62;100.00;99887.97;4939679;28;20031;-78
2023/01/08 08:37:58;;;;;;;12.60;1.60;;;;;;;7.58;100.00;99891.09;4940816;29;20039;-77
2023/01/08 08:40:25;;;;;;;13.90;1.10;;;;;;;7.76;100.00;99880.53;4934871;29;20031;-79
2023/01/08 08:42:58;;;;;;;6.95;1.00;;;;;;;7.63;100.00;99883.41;4946700;29;20050;-79
2023/01/08 08:45:24;;;;;;;13.77;1.42;;;;;;;7.66;100.00;99870.38;4933418;29;20031;-80
2023/01/08 08:47:50;;;;;;;9.25;1.48;;;;;;;7.60;100.00;99875.47;4931549;29;20040;-80
2023/01/08 08:50:16;;;;;;;12.95;1.60;;;;;;;7.85;100.00;99885.19;4954829;28;20042;-80
2023/01/08 08:52:43;;;;;;;10.90;1.38;;;;;;;7.86;100.00;99876.03;4955717;29;20046;-80
2023/01/08 08:55:13;;;;;;;12.68;1.13;;;;;;;7.85;100.00;99872.41;4924466;29;20059;-79
2023/01/08 08:57:39;;;;;;;11.73;1.00;;;;;;;7.91;100.00;99871.06;4954528;29;20043;-80
2023/01/08 09:00:05;;;;;;;5.38;0.82;;;;;;;8.04;100.00;99866.28;4913657;29;20498;-80
2023/01/08 09:02:30;;;;;;;6.47;1.20;;;;;;;8.10;100.00;99865.78;4951608;29;20042;-80
2023/01/08 09:04:56;;;;;;;13.32;1.50;;;;;;;7.87;100.00;99864.13;4933833;29;20035;-80
2023/01/08 09:07:21;;;;;;;12.40;2.13;;;;;;;7.96;100.00;99865.22;4940137;28;20579;-79
2023/01/08 09:09:47;;;;;;;14.65;1.90;;;;;;;8.14;100.00;99868.25;4946341;29;20031;-80
2023/01/08 09:12:12;;;;;;;8.93;1.63;;;;;;;7.95;100.00;99863.47;4943988;29;20086;-80
2023/01/08 09:14:38;;;;;;;14.02;1.60;;;;;;;7.99;100.00;99860.38;4941737;29;20051;-80
2023/01/08 09:17:03;;;;;;;11.27;1.50;;;;;;;8.12;100.00;99856.59;4939973;28;20039;-80
2023/01/08 09:19:29;;;;;;;6.88;1.23;;;;;;;8.32;100.00;99860.38;4945499;28;20039;-80
2023/01/08 09:21:54;;;;;;;10.32;1.27;;;;;;;8.32;100.00;99855.75;4938448;29;20478;-80
2023/01/08 09:24:20;;;;;;;13.00;1.63;;;;;;;8.24;100.00;99858.28;4945717;29;20151;-79
2023/01/08 09:26:45;;;;;;;4.38;0.98;;;;;;;8.23;100.00;99845.63;4946096;29;20031;-80
2023/01/08 09:29:11;;;;;;;6.72;1.15;;;;;;;8.36;100.00;99851.78;4947621;29;20122;-80
2023/01/08 09:31:36;;;;;;;11.68;1.42;;;;;;;8.44;100.00;99860.22;4956933;29;20117;-80
2023/01/08 09:34:01;;;;;;;10.50;1.27;;;;;;;8.61;100.00;99838.78;4949695;29;20461;-80
2023/01/08 09:36:27;;;;;;;9.68;1.20;;;;;;;8.58;100.00;99850.81;4957632;28;20094;-81
2023/01/08 09:38:52;;;;;;;11.40;1.13;;;;;;;8.53;100.00;99849.50;4934358;29;20126;-81
2023/01/08 09:41:28;;;;;;;7.97;1.10;;;;;;;8.63;100.00;99855.88;4930475;29;20039;-81
2023/01/08 09:43:56;;;;;;;8.50;1.15;;;;;;;8.83;100.00;99844.06;4954650;28;20035;-81
2023/01/08 09:46:25;;;;;;;15.85;1.17;;;;;;;8.81;100.00;99847.94;4931410;29;20033;-81
2023/01/08 09:48:53;;;;;;;11.07;1.40;;;;;;;8.79;100.00;99855.41;4943199;29;20035;-80
2023/01/08 09:51:20;;;;;;;7.93;1.05;;;;;;;8.86;100.00;99839.34;4928499;28;20046;-80
2023/01/08 09:53:49;;;;;;;8.90;1.92;;;;;;;8.88;100.00;99843.66;4958884;28;20035;-80
2023/01/08 09:56:17;;;;;;;7.72;1.20;;;;;;;8.91;100.00;99843.38;4944638;29;20023;-80
2023/01/08 09:58:47;;;;;;;11.02;1.33;;;;;;;8.78;100.00;99843.59;4954032;28;20062;-80
2023/01/08 10:01:16;;;;;;;6.10;1.10;;;;;;;8.84;100.00;99847.66;4954725;29;20497;-81
2023/01/08 10:03:49;;;;;;;23.63;1.60;;;;;;;8.81;100.00;99837.00;4965195;28;20066;-80
2023/01/08 10:06:15;;;;;;;;;;;;;;;8.81;100.00;99837.00;4948913;28;20106;-80
2023/01/08 10:08:41;;;;;;;7.88;1.25;;;;;;;8.85;100.00;99834.88;4958232;28;19922;-79
2023/01/08 10:11:08;;;;;;;10.20;1.58;;;;;;;8.81;100.00;99831.56;4942620;29;20481;-81
2023/01/08 10:13:37;;;;;;;6.43;1.05;;;;;;;8.94;100.00;99823.16;4959366;29;20103;-80
2023/01/08 10:16:08;;;;;;;13.02;1.75;;;;;;;8.92;100.00;99812.38;4953909;28;20469;-80
2023/01/08 10:18:35;;;;;;;4.60;1.10;;;;;;;9.02;100.00;99802.34;4955820;29;20102;-80
2023/01/08 10:21:00;;;;;;;14.45;1.52;;;;;;;9.02;100.00;99807.81;4937555;29;20079;-80
2023/01/08 10:23:26;;;;;;;12.38;1.75;;;;;;;9.03;100.00;99800.47;4964914;28;20066;-80
2023/01/08 10:25:59;;;;;;;12.50;2.60;;;;;;;9.10;100.00;99812.59;4931177;29;20065;-81
2023/01/08 10:28:36;;;;;;;3.28;1.58;;;;;;;9.01;100.00;99803.34;4960034;28;20043;-80
2023/01/08 10:31:14;;;;;;;14.88;1.98;;;;;;;9.04;100.00;99804.09;4948037;28;20024;-80
2023/01/08 10:33:45;;;;;;;14.57;1.45;;;;;;;8.96;100.00;99811.06;4955010;28;20049;-80
2023/01/08 10:36:15;;;;;;;7.13;1.33;;;;;;;9.09;100.00;99804.53;4955369;29;20107;-79
2023/01/08 10:38:49;;;;;;;10.85;1.40;;;;;;;9.20;100.00;99805.28;4985109;28;20039;-79
2023/01/08 10:41:16;;;;;;;12.80;2.00;;;;;;;9.25;100.00;99803.97;4956845;28;20035;-79
2023/01/08 10:43:50;;;;;;;9.70;1.70;;;;;;;9.30;100.00;99802.56;4938980;28;20390;-79
2023/01/08 10:46:24;;;;;;;7.03;0.93;;;;;;;9.14;100.00;99800.38;4962342;28;20027;-79
2023/01/08 10:48:54;;;;;;;13.02;1.80;;;;;;;9.15;100.00;99806.69;4952265;29;20036;-79
2023/01/08 10:51:22;;;;;;;7.70;1.23;;;;;;;9.10;100.00;99801.66;4940918;29;20030;-79
2023/01/08 10:53:48;;;;;;;11.00;2.38;;;;;;;9.04;100.00;99794.00;4957583;28;20031;-79
2023/01/08 10:56:22;;;;;;;3.53;1.13;;;;;;;9.05;100.00;99794.88;4940553;29;20031;-79
2023/01/08 10:58:48;;;;;;;6.15;1.20;;;;;;;8.94;100.00;99783.06;4953341;28;20049;-79
2023/01/08 11:01:21;;;;;;;4.13;1.10;;;;;;;9.02;100.00;99776.91;4925457;29;20035;-79
2023/01/08 11:03:50;;;;;;;1.30;0.75;;;;;;;8.91;100.00;99772.41;4953053;28;20066;-79
2023/01/08 11:06:22;;;;;;;4.45;0.90;;;;;;;8.90;100.00;99759.75;4942403;28;20117;-80
2023/01/08 11:09:03;;;;;;;3.20;0.80;;;;;;;8.78;100.00;99752.69;4945169;28;20371;-79
2023/01/08 11:11:37;;;;;;;4.57;1.08;;;;;;;8.57;100.00;99741.81;4950813;29;20051;-81
2023/01/08 11:14:12;;;;;;;3.90;0.73;;;;;;;8.79;100.00;99747.09;4940059;28;20035;-78
2023/01/08 11:16:39;;;;;;;2.28;0.70;;;;;;;9.12;100.00;99744.19;4955147;28;20036;-81
2023/01/08 11:19:18;;;;;;;2.88;0.52;;;;;;;9.62;100.00;99743.25;4924964;29;20067;-80
2023/01/08 11:21:55;;;;;;;4.45;0.70;;;;;;;9.63;100.00;99756.75;4942154;29;20031;-79
2023/01/08 11:24:31;;;;;;;1.83;0.60;;;;;;;9.56;100.00;99739.22;4960251;29;20085;-80
2023/01/08 11:27:17;;;;;;;4.93;0.80;;;;;;;9.74;100.00;99742.97;4960057;29;20141;-81
2023/01/08 11:29:57;;;;;;;3.38;0.70;;;;;;;9.67;100.00;99743.66;4942045;29;20032;-80
2023/01/08 11:32:40;;;;;;;2.58;0.60;;;;;;;9.70;100.00;99736.03;4959897;28;20129;-79
2023/01/08 11:35:32;;;;;;;1.83;0.68;;;;;;;9.85;100.00;99732.88;4945913;29;20093;-80
2023/01/08 11:38:00;;;;;;;2.33;1.00;;;;;;;9.90;100.00;99727.84;4960640;28;20094;-79